Time;durP1;ratioP1;P1;durP2;ratioP2;P2;SDS_P1;SDS_P2;PMS_P1;PMS_P2;Temp;Humidity;BMP_temperature;BMP_pressure;BME280_temperature;BME280_humidity;BME280_pressure;Samples;Min_cycle;Max_cycle;Signal;HPM_P1;HPM_P2
2022/04/05 00:00:29;;;;;;;0.00;0.00;;;6.60;99.90;;;;;;5004929;28;20444;-61
2022/04/05 00:02:56;;;;;;;0.00;0.00;;;6.70;99.90;;;;;;5014375;28;20052;-60
2022/04/05 00:05:22;;;;;;;0.00;0.00;;;6.70;99.90;;;;;;5003384;28;20049;-60
2022/04/05 00:07:47;;;;;;;0.00;0.00;;;6.70;99.90;;;;;;5002602;28;20536;-60
2022/04/05 00:10:14;;;;;;;0.00;0.00;;;6.60;99.90;;;;;;5002818;28;20671;-59
2022/04/05 00:12:40;;;;;;;0.00;0.00;;;6.70;99.90;;;;;;5003634;28;20058;-59
2022/04/05 00:15:09;;;;;;;0.00;0.00;;;6.60;99.90;;;;;;5004342;28;20052;-60
2022/04/05 00:17:35;;;;;;;0.00;0.00;;;6.50;99.90;;;;;;5004074;28;20037;-60
2022/04/05 00:20:01;;;;;;;0.00;0.00;;;6.60;99.90;;;;;;5001826;28;20404;-59
2022/04/05 00:22:27;;;;;;;0.00;0.00;;;6.60;99.90;;;;;;5004229;28;20053;-60
2022/04/05 00:24:52;;;;;;;0.00;0.00;;;6.60;99.90;;;;;;5003754;28;20041;-59
2022/04/05 00:27:18;;;;;;;0.00;0.00;;;6.60;99.90;;;;;;5003869;28;20049;-59
2022/04/05 00:29:44;;;;;;;0.00;0.00;;;6.70;99.90;;;;;;5003062;28;20053;-59
2022/04/05 00:32:09;;;;;;;0.00;0.00;;;6.70;99.90;;;;;;5003722;28;20042;-60
2022/04/05 00:34:35;;;;;;;0.00;0.00;;;6.50;99.90;;;;;;5002871;28;20129;-60
2022/04/05 00:37:01;;;;;;;0.00;0.00;;;6.60;99.90;;;;;;5003907;28;20042;-61
2022/04/05 00:39:27;;;;;;;0.00;0.00;;;6.50;99.90;;;;;;5003426;28;20061;-60
2022/04/05 00:41:53;;;;;;;0.00;0.00;;;6.50;99.90;;;;;;5003353;28;20077;-60
2022/04/05 00:44:19;;;;;;;0.00;0.00;;;6.60;99.90;;;;;;5003675;28;20073;-59
2022/04/05 00:46:45;;;;;;;0.00;0.00;;;6.60;99.90;;;;;;5002887;28;20050;-59
2022/04/05 00:49:16;;;;;;;0.00;0.00;;;6.50;99.90;;;;;;5002758;28;20049;-60
2022/04/05 00:51:42;;;;;;;0.00;0.00;;;6.60;99.90;;;;;;5002000;28;20054;-59
2022/04/05 00:54:13;;;;;;;0.00;0.00;;;6.50;99.90;;;;;;5003609;28;20108;-61
2022/04/05 00:56:42;;;;;;;0.00;0.00;;;6.50;99.90;;;;;;5002135;28;20053;-60
2022/04/05 00:59:10;;;;;;;0.00;0.00;;;6.50;99.90;;;;;;5001927;28;20137;-60
2022/04/05 01:04:03;;;;;;;0.00;0.00;;;6.40;99.90;;;;;;5034439;22;20147;-60
2022/04/05 01:06:39;;;;;;;0.00;0.00;;;6.60;99.90;;;;;;5037015;28;20048;-60
2022/04/05 01:09:09;;;;;;;0.00;0.00;;;6.60;99.90;;;;;;5028316;28;20049;-61
2022/04/05 01:11:35;;;;;;;0.00;0.00;;;6.60;99.90;;;;;;5023068;28;20072;-57
2022/04/05 01:14:01;;;;;;;0.00;0.00;;;6.50;99.90;;;;;;5023052;28;20103;-60
2022/04/05 01:16:27;;;;;;;0.00;0.00;;;6.60;99.90;;;;;;5022936;28;20454;-60
2022/04/05 01:18:53;;;;;;;0.00;0.00;;;6.50;99.90;;;;;;5021794;28;20132;-61
2022/04/05 01:21:19;;;;;;;0.00;0.00;;;6.40;99.90;;;;;;5022244;28;20113;-60
2022/04/05 01:24:12;;;;;;;0.00;0.00;;;6.50;99.90;;;;;;5020713;28;20034;-60
2022/04/05 01:26:41;;;;;;;0.00;0.00;;;6.50;99.90;;;;;;5022501;28;20041;-60
2022/04/05 01:29:08;;;;;;;0.00;0.00;;;6.50;99.90;;;;;;5022194;28;20041;-60
2022/04/05 01:31:41;;;;;;;0.00;0.00;;;6.50;99.90;;;;;;5022994;28;20106;-60
2022/04/05 01:34:07;;;;;;;0.00;0.00;;;6.50;99.90;;;;;;5022139;28;20535;-60
2022/04/05 01:36:38;;;;;;;0.00;0.00;;;6.40;99.90;;;;;;5022425;28;20120;-59
2022/04/05 01:39:06;;;;;;;0.00;0.00;;;6.40;99.90;;;;;;5022733;28;20454;-59
2022/04/05 01:41:32;;;;;;;0.00;0.00;;;6.30;99.90;;;;;;5022416;28;20041;-60
2022/04/05 01:43:57;;;;;;;0.00;0.00;;;6.60;99.90;;;;;;5021075;28;20056;-59
2022/04/05 01:46:23;;;;;;;0.00;0.00;;;6.30;99.90;;;;;;5022219;28;20045;-59
2022/04/05 01:48:50;;;;;;;0.00;0.00;;;6.40;99.90;;;;;;5021524;28;20040;-60
2022/04/05 01:51:16;;;;;;;0.00;0.00;;;6.30;99.90;;;;;;5021484;28;20041;-60
2022/04/05 01:53:41;;;;;;;0.00;0.00;;;6.40;99.90;;;;;;5022287;28;20052;-59
2022/04/05 01:56:07;;;;;;;0.00;0.00;;;7.60;99.90;;;;;;5021793;28;20081;-60
2022/04/05 01:58:35;;;;;;;0.00;0.00;;;6.30;99.90;;;;;;5022005;28;20096;-60
2022/04/05 02:01:02;;;;;;;0.00;0.00;;;6.40;99.90;;;;;;5024571;28;20036;-60
2022/04/05 02:03:29;;;;;;;0.00;0.00;;;6.30;99.90;;;;;;5030673;28;20478;-60
2022/04/05 02:05:54;;;;;;;0.00;0.00;;;6.60;99.90;;;;;;5020200;28;20099;-60
2022/04/05 02:08:20;;;;;;;0.00;0.00;;;6.30;99.90;;;;;;5021756;28;20049;-60
2022/04/05 02:10:46;;;;;;;0.00;0.00;;;6.30;99.90;;;;;;5019972;28;20041;-60
2022/04/05 02:13:11;;;;;;;0.00;0.00;;;6.30;99.90;;;;;;5022145;28;20038;-60
2022/04/05 02:15:37;;;;;;;0.00;0.00;;;6.20;99.90;;;;;;5021235;28;20059;-61
2022/04/05 02:18:03;;;;;;;0.00;0.00;;;6.20;99.90;;;;;;5021852;28;20107;-60
2022/04/05 02:20:28;;;;;;;0.00;0.00;;;6.20;99.90;;;;;;5021141;28;20556;-59
2022/04/05 02:22:54;;;;;;;0.00;0.00;;;6.20;99.90;;;;;;5021066;28;20763;-60
2022/04/05 02:25:20;;;;;;;0.00;0.00;;;6.20;99.90;;;;;;5021486;28;20118;-60
2022/04/05 02:27:47;;;;;;;0.00;0.00;;;6.10;99.90;;;;;;5021397;28;20052;-59
2022/04/05 02:30:13;;;;;;;0.00;0.00;;;6.20;99.90;;;;;;5021870;28;20099;-60
2022/04/05 02:32:39;;;;;;;0.00;0.00;;;6.10;99.90;;;;;;5021136;28;20357;-60
2022/04/05 02:35:05;;;;;;;0.00;0.00;;;6.10;99.90;;;;;;5021089;28;20095;-59
2022/04/05 02:41:12;;;;;;;0.00;0.00;;;6.00;99.90;;;;;;5031019;28;20036;-60
2022/04/05 02:43:38;;;;;;;0.00;0.00;;;6.00;99.90;;;;;;5038325;28;20842;-60
2022/04/05 02:46:05;;;;;;;0.00;0.00;;;5.90;99.90;;;;;;5044727;28;20051;-60
2022/04/05 02:48:30;;;;;;;0.00;0.00;;;5.90;99.90;;;;;;5041700;28;20037;-60
2022/04/05 02:50:56;;;;;;;0.00;0.00;;;5.90;99.90;;;;;;5039590;28;20051;-60
2022/04/05 02:53:22;;;;;;;0.00;0.00;;;5.90;99.90;;;;;;5041356;28;20072;-60
2022/04/05 02:55:47;;;;;;;0.00;0.00;;;5.90;99.90;;;;;;5040553;28;20076;-59
2022/04/05 02:58:13;;;;;;;0.00;0.00;;;5.90;99.90;;;;;;5040963;28;20510;-60
2022/04/05 03:00:39;;;;;;;0.00;0.00;;;5.80;99.90;;;;;;5039301;28;20083;-59
2022/04/05 03:03:05;;;;;;;0.00;0.00;;;5.90;99.90;;;;;;5030891;28;20144;-60
2022/04/05 03:05:31;;;;;;;0.00;0.00;;;5.80;99.90;;;;;;5021258;28;20132;-60
2022/04/05 03:07:57;;;;;;;0.00;0.00;;;5.80;99.90;;;;;;5019966;28;20120;-60
2022/04/05 03:10:23;;;;;;;0.00;0.00;;;5.80;99.90;;;;;;5021405;28;20049;-60
2022/04/05 03:12:48;;;;;;;0.00;0.00;;;5.80;99.90;;;;;;5020737;28;20037;-59
2022/04/05 03:15:14;;;;;;;0.00;0.00;;;5.80;99.90;;;;;;5021497;28;20069;-60
2022/04/05 03:17:45;;;;;;;0.00;0.00;;;5.80;99.90;;;;;;5020576;28;20056;-59
2022/04/05 03:20:14;;;;;;;0.00;0.00;;;5.80;99.90;;;;;;5024308;28;20076;-60
2022/04/05 03:22:43;;;;;;;0.00;0.00;;;5.80;99.90;;;;;;5024502;28;20056;-59
2022/04/05 03:25:10;;;;;;;0.00;0.00;;;5.80;99.90;;;;;;5024635;28;20099;-60
2022/04/05 03:27:42;;;;;;;0.00;0.00;;;5.70;99.90;;;;;;5024816;28;20049;-60
2022/04/05 03:30:10;;;;;;;0.00;0.00;;;5.00;99.90;;;;;;5024884;28;20037;-60
2022/04/05 03:32:37;;;;;;;0.00;0.00;;;6.00;99.90;;;;;;5024080;28;20095;-60
2022/04/05 03:35:04;;;;;;;0.00;0.00;;;5.70;99.90;;;;;;5024425;28;20432;-60
2022/04/05 03:37:29;;;;;;;0.00;0.00;;;5.70;99.90;;;;;;5024585;28;20046;-60
2022/04/05 03:39:55;;;;;;;0.00;0.00;;;5.70;99.90;;;;;;5023708;28;20061;-60
2022/04/05 03:42:21;;;;;;;0.00;0.00;;;5.70;99.90;;;;;;5024634;28;20041;-59
2022/04/05 03:44:47;;;;;;;0.00;0.00;;;5.70;99.90;;;;;;5023943;28;20127;-59
2022/04/05 03:47:13;;;;;;;0.00;0.00;;;5.70;99.90;;;;;;5024939;28;20447;-60
2022/04/05 03:49:39;;;;;;;0.00;0.00;;;5.70;99.90;;;;;;5021905;28;20056;-61
2022/04/05 03:52:05;;;;;;;0.00;0.00;;;5.70;99.90;;;;;;5024793;28;20068;-59
2022/04/05 03:54:30;;;;;;;0.00;0.00;;;5.60;99.90;;;;;;5024834;28;20046;-60
2022/04/05 03:56:56;;;;;;;0.00;0.00;;;5.70;99.90;;;;;;5023225;28;20041;-60
2022/04/05 03:59:21;;;;;;;0.00;0.00;;;5.60;99.90;;;;;;5024629;28;20084;-60
2022/04/05 04:01:47;;;;;;;0.00;0.00;;;5.70;99.90;;;;;;5028474;28;20045;-61
2022/04/05 04:04:13;;;;;;;0.00;0.00;;;5.80;99.90;;;;;;5028809;28;20065;-60
2022/04/05 04:06:38;;;;;;;0.00;0.00;;;5.70;99.90;;;;;;5023336;28;20068;-60
2022/04/05 04:09:04;;;;;;;0.00;0.00;;;5.60;99.90;;;;;;5024166;28;20586;-60
2022/04/05 04:11:29;;;;;;;0.00;0.00;;;5.70;99.90;;;;;;5024346;28;20071;-59
2022/04/05 04:13:55;;;;;;;0.00;0.00;;;5.60;99.90;;;;;;5023055;28;20049;-60
2022/04/05 04:16:21;;;;;;;0.00;0.00;;;5.70;99.90;;;;;;5024290;28;20049;-60
2022/04/05 04:18:47;;;;;;;0.00;0.00;;;5.70;99.90;;;;;;5022401;28;20056;-59
2022/04/05 04:21:13;;;;;;;0.00;0.00;;;5.60;99.90;;;;;;5024048;28;20045;-60
2022/04/05 04:23:39;;;;;;;0.00;0.00;;;5.60;99.90;;;;;;5022868;28;20055;-59
2022/04/05 04:26:05;;;;;;;0.00;0.00;;;5.60;99.90;;;;;;5023778;28;20037;-59
2022/04/05 04:28:31;;;;;;;0.00;0.00;;;5.60;99.90;;;;;;5024226;28;20110;-60
2022/04/05 04:30:57;;;;;;;0.00;0.00;;;5.60;99.90;;;;;;5021898;28;20515;-61
2022/04/05 04:33:22;;;;;;;0.00;0.00;;;5.70;99.90;;;;;;5023973;28;20138;-60
2022/04/05 04:35:49;;;;;;;0.00;0.00;;;5.60;99.90;;;;;;5022356;28;20029;-61
2022/04/05 04:38:15;;;;;;;0.00;0.00;;;5.60;99.90;;;;;;5023549;28;20453;-60
2022/04/05 04:40:46;;;;;;;0.00;0.00;;;5.60;99.90;;;;;;5022316;28;20084;-59
2022/04/05 04:43:12;;;;;;;0.00;0.00;;;5.70;99.90;;;;;;5023698;28;20352;-60
2022/04/05 04:45:38;;;;;;;0.00;0.00;;;5.60;99.90;;;;;;5022076;28;20534;-60
2022/04/05 04:48:04;;;;;;;0.00;0.00;;;5.70;99.90;;;;;;5023221;28;20620;-61
2022/04/05 04:50:29;;;;;;;0.00;0.00;;;5.70;99.90;;;;;;5022553;28;20041;-61
2022/04/05 04:52:55;;;;;;;0.00;0.00;;;5.70;99.90;;;;;;5022936;28;20112;-60
2022/04/05 04:55:22;;;;;;;0.00;0.00;;;5.70;99.90;;;;;;5023428;28;20041;-60
2022/04/05 04:57:48;;;;;;;0.00;0.00;;;5.70;99.90;;;;;;5022372;28;20053;-59
2022/04/05 05:00:13;;;;;;;0.00;0.00;;;5.60;99.90;;;;;;5038771;28;20398;-59
2022/04/05 05:02:46;;;;;;;0.00;0.00;;;5.70;99.90;;;;;;5033647;28;20061;-59
2022/04/05 05:05:12;;;;;;;0.00;0.00;;;5.60;99.90;;;;;;5021743;28;20167;-60
2022/04/05 05:07:38;;;;;;;0.00;0.00;;;5.70;99.90;;;;;;5022742;28;20120;-60
2022/04/05 05:10:07;;;;;;;0.00;0.00;;;5.70;99.90;;;;;;5022546;28;20045;-60
2022/04/05 05:12:33;;;;;;;0.00;0.00;;;5.60;99.90;;;;;;5022371;28;20480;-61
2022/04/05 05:14:59;;;;;;;0.00;0.00;;;5.70;99.90;;;;;;5022168;28;20056;-61
2022/04/05 05:17:24;;;;;;;0.00;0.00;;;5.70;99.90;;;;;;5023070;28;20751;-59
2022/04/05 05:19:50;;;;;;;0.00;0.00;;;5.70;99.90;;;;;;5021489;28;20511;-61
2022/04/05 05:22:15;;;;;;;0.00;0.00;;;5.70;99.90;;;;;;5022169;28;20037;-60
2022/04/05 05:24:41;;;;;;;0.00;0.00;;;5.70;99.90;;;;;;5022758;28;20064;-60
2022/04/05 05:27:07;;;;;;;0.00;0.00;;;5.70;99.90;;;;;;5022312;28;20041;-60
2022/04/05 05:29:32;;;;;;;0.00;0.00;;;5.70;99.90;;;;;;5038462;28;20038;-60
2022/04/05 05:31:58;;;;;;;0.00;0.00;;;5.70;99.90;;;;;;5021520;28;20111;-60
2022/04/05 05:34:24;;;;;;;0.00;0.00;;;5.80;99.90;;;;;;5021977;28;20059;-60
2022/04/05 05:36:50;;;;;;;0.00;0.00;;;5.80;99.90;;;;;;5021887;28;20045;-60
2022/04/05 05:39:15;;;;;;;0.00;0.00;;;5.90;99.90;;;;;;5037198;28;20574;-60
2022/04/05 05:41:41;;;;;;;0.00;0.00;;;5.80;99.90;;;;;;5021831;28;20534;-60
2022/04/05 05:44:07;;;;;;;0.00;0.00;;;5.80;99.90;;;;;;5022361;28;20091;-60
2022/04/05 05:46:32;;;;;;;0.00;0.00;;;5.90;99.90;;;;;;5021550;28;20041;-61
2022/04/05 05:48:58;;;;;;;0.00;0.00;;;5.90;99.90;;;;;;5036085;28;20075;-59
2022/04/05 05:51:23;;;;;;;0.00;0.00;;;5.90;99.90;;;;;;5022172;28;20132;-60
2022/04/05 05:53:49;;;;;;;0.00;0.00;;;5.90;99.90;;;;;;5021853;28;20099;-60
2022/04/05 05:56:15;;;;;;;0.00;0.00;;;6.00;99.90;;;;;;5021607;28;20041;-61
2022/04/05 05:58:40;;;;;;;0.00;0.00;;;6.90;99.90;;;;;;5021781;28;20034;-60
2022/04/05 06:01:06;;;;;;;0.00;0.00;;;6.00;99.90;;;;;;5024194;28;20051;-60
2022/04/05 06:03:32;;;;;;;0.00;0.00;;;6.00;99.90;;;;;;5030007;28;20190;-60
2022/04/05 06:05:57;;;;;;;0.00;0.00;;;6.10;99.90;;;;;;5020814;28;20064;-60
2022/04/05 06:08:23;;;;;;;0.00;0.00;;;6.10;99.90;;;;;;5021837;28;20060;-60
2022/04/05 06:10:49;;;;;;;0.00;0.00;;;6.10;99.90;;;;;;5021864;28;20041;-60
2022/04/05 06:13:15;;;;;;;0.00;0.00;;;6.10;99.90;;;;;;5021644;28;20106;-61
2022/04/05 06:15:40;;;;;;;0.00;0.00;;;6.10;99.90;;;;;;5021068;28;20083;-60
2022/04/05 06:18:06;;;;;;;0.00;0.00;;;6.10;99.90;;;;;;5021480;28;20416;-61
2022/04/05 06:20:32;;;;;;;0.00;0.00;;;5.60;99.90;;;;;;5021367;28;20045;-62
2022/04/05 06:23:00;;;;;;;0.00;0.00;;;6.20;99.90;;;;;;5020767;28;20481;-61
2022/04/05 06:25:34;;;;;;;0.00;0.00;;;6.20;99.90;;;;;;5021829;28;20037;-61
2022/04/05 06:28:02;;;;;;;0.00;0.00;;;6.30;99.90;;;;;;5021914;28;20045;-61
2022/04/05 06:30:29;;;;;;;0.00;0.00;;;6.30;99.90;;;;;;5020935;28;20099;-61
2022/04/05 06:33:06;;;;;;;0.00;0.00;;;6.30;99.90;;;;;;5021225;28;20120;-60
2022/04/05 06:35:32;;;;;;;0.00;0.00;;;6.40;99.90;;;;;;5021419;28;20083;-60
2022/04/05 06:37:58;;;;;;;0.00;0.00;;;6.30;99.90;;;;;;5020437;28;20037;-60
2022/04/05 06:40:23;;;;;;;0.00;0.00;;;6.30;99.90;;;;;;5021768;28;20056;-61
2022/04/05 06:42:49;;;;;;;0.00;0.00;;;6.40;99.90;;;;;;5021386;28;20053;-61
2022/04/05 06:45:21;;;;;;;0.00;0.00;;;6.40;99.90;;;;;;5021423;28;20045;-61
2022/04/05 06:47:47;;;;;;;0.00;0.00;;;6.40;99.90;;;;;;5020824;28;20053;-60
2022/04/05 06:50:14;;;;;;;0.20;0.20;;;6.40;99.90;;;;;;5020928;28;20061;-60
2022/04/05 06:52:41;;;;;;;0.00;0.00;;;6.50;99.90;;;;;;5020943;28;20079;-61
2022/04/05 06:55:08;;;;;;;0.00;0.00;;;6.50;99.90;;;;;;5024915;28;20098;-61
2022/04/05 06:57:34;;;;;;;0.00;0.00;;;6.60;99.90;;;;;;5025618;28;20091;-61
2022/04/05 07:00:00;;;;;;;0.00;0.00;;;6.60;99.90;;;;;;5025460;28;20073;-60
2022/04/05 07:02:26;;;;;;;0.00;0.00;;;6.60;99.90;;;;;;5035667;28;20052;-61
2022/04/05 07:04:52;;;;;;;0.00;0.00;;;6.60;99.90;;;;;;5024388;28;20054;-61
2022/04/05 07:07:18;;;;;;;0.00;0.00;;;6.60;99.90;;;;;;5025204;28;20112;-60
2022/04/05 07:09:44;;;;;;;0.00;0.00;;;6.60;99.90;;;;;;5024793;28;20551;-60
2022/04/05 07:12:09;;;;;;;0.00;0.00;;;6.70;99.90;;;;;;5024967;28;20048;-60
2022/04/05 07:14:35;;;;;;;0.00;0.00;;;6.80;99.90;;;;;;5024703;28;20492;-60
2022/04/05 07:17:01;;;;;;;0.00;0.00;;;6.70;99.90;;;;;;5025400;28;20041;-60
2022/04/05 07:19:27;;;;;;;0.00;0.00;;;7.10;99.90;;;;;;5023709;28;20100;-60
2022/04/05 07:21:53;;;;;;;0.00;0.00;;;6.80;99.90;;;;;;5024654;28;20095;-61
2022/04/05 07:24:19;;;;;;;0.00;0.00;;;6.80;99.90;;;;;;5024771;28;20045;-61
2022/04/05 07:26:45;;;;;;;1.65;0.90;;;6.90;99.90;;;;;;5039656;28;20048;-60
2022/04/05 07:29:11;;;;;;;0.00;0.00;;;6.90;99.90;;;;;;5024208;28;20121;-61
2022/04/05 07:31:38;;;;;;;0.00;0.00;;;6.90;99.90;;;;;;5039743;28;20049;-62
2022/04/05 07:34:04;;;;;;;0.00;0.00;;;6.90;99.90;;;;;;5024140;28;20084;-60
2022/04/05 07:36:31;;;;;;;0.00;0.00;;;6.90;99.90;;;;;;5024585;28;20037;-61
2022/04/05 07:38:57;;;;;;;0.00;0.00;;;7.00;99.90;;;;;;5039250;28;20049;-58
2022/04/05 07:41:22;;;;;;;0.00;0.00;;;7.00;99.90;;;;;;5024827;28;20121;-60
2022/04/05 07:43:48;;;;;;;0.00;0.00;;;7.10;99.90;;;;;;5027386;28;20045;-61
2022/04/05 07:46:14;;;;;;;0.00;0.00;;;7.00;99.90;;;;;;5041873;28;20103;-60
2022/04/05 07:48:39;;;;;;;0.00;0.00;;;7.10;99.90;;;;;;5042692;28;20036;-60
2022/04/05 07:51:06;;;;;;;0.00;0.00;;;7.10;99.90;;;;;;5043854;28;20115;-60
2022/04/05 07:53:32;;;;;;;0.00;0.00;;;7.10;99.90;;;;;;5044255;28;20037;-59
2022/04/05 07:55:58;;;;;;;0.13;0.13;;;7.10;99.90;;;;;;5043929;28;20090;-60
2022/04/05 07:58:24;;;;;;;0.00;0.00;;;7.10;99.90;;;;;;5043995;28;20041;-60
2022/04/05 08:00:50;;;;;;;0.00;0.00;;;7.10;99.90;;;;;;5041954;28;20029;-59
2022/04/05 08:03:17;;;;;;;0.00;0.00;;;7.10;99.90;;;;;;5031719;28;20833;-60
2022/04/05 08:05:43;;;;;;;0.10;0.10;;;7.10;99.90;;;;;;5041962;28;20040;-61
2022/04/05 08:08:09;;;;;;;0.00;0.00;;;7.10;99.90;;;;;;5043995;28;20069;-60
2022/04/05 08:10:35;;;;;;;0.00;0.00;;;7.10;99.90;;;;;;5043174;28;20083;-60
2022/04/05 08:13:00;;;;;;;0.00;0.00;;;7.10;99.90;;;;;;5043888;28;20094;-61
2022/04/05 08:15:27;;;;;;;0.00;0.00;;;7.20;99.90;;;;;;5044013;28;20073;-61
2022/04/05 08:17:53;;;;;;;0.00;0.00;;;7.10;99.90;;;;;;5043503;28;20168;-61
2022/04/05 08:20:19;;;;;;;0.00;0.00;;;7.10;99.90;;;;;;5043168;28;20935;-60
2022/04/05 08:22:46;;;;;;;0.00;0.00;;;7.10;99.90;;;;;;5043186;28;20033;-60
2022/04/05 08:25:16;;;;;;;0.00;0.00;;;7.10;99.90;;;;;;5043973;28;20060;-61
2022/04/05 08:27:46;;;;;;;0.00;0.00;;;7.10;99.90;;;;;;5041710;28;20416;-60
2022/04/05 08:30:15;;;;;;;0.00;0.00;;;7.10;99.90;;;;;;5043343;28;20041;-61
2022/04/05 08:32:42;;;;;;;0.10;0.10;;;7.20;99.90;;;;;;5043237;28;20056;-59
2022/04/05 08:35:13;;;;;;;0.00;0.00;;;7.20;99.90;;;;;;5040669;28;20041;-61
2022/04/05 08:37:40;;;;;;;0.00;0.00;;;7.30;99.90;;;;;;5043336;28;20036;-60
2022/04/05 08:40:07;;;;;;;0.00;0.00;;;7.40;99.90;;;;;;5043074;28;20056;-60
2022/04/05 08:42:37;;;;;;;0.00;0.00;;;7.30;99.90;;;;;;5043461;28;20123;-60
2022/04/05 08:45:10;;;;;;;0.00;0.00;;;7.20;99.90;;;;;;5043352;28;20045;-60
2022/04/05 08:47:41;;;;;;;0.00;0.00;;;7.20;99.90;;;;;;5041614;28;20399;-60
2022/04/05 08:50:07;;;;;;;0.00;0.00;;;7.30;99.90;;;;;;5033593;28;20095;-60
2022/04/05 08:52:34;;;;;;;0.00;0.00;;;7.20;99.90;;;;;;5041800;28;20056;-60
2022/04/05 08:55:00;;;;;;;0.00;0.00;;;7.20;99.90;;;;;;5041384;28;20123;-60
2022/04/05 08:57:26;;;;;;;0.00;0.00;;;7.30;99.90;;;;;;5042495;28;20103;-61
2022/04/05 08:59:52;;;;;;;0.00;0.00;;;7.20;99.90;;;;;;5041770;28;20842;-60
2022/04/05 09:02:25;;;;;;;0.00;0.00;;;7.30;99.90;;;;;;5033398;28;20053;-60
2022/04/05 09:04:52;;;;;;;0.00;0.00;;;7.30;99.90;;;;;;5021443;28;20484;-59
2022/04/05 09:07:32;;;;;;;0.00;0.00;;;7.30;99.90;;;;;;5022261;28;20088;-60
2022/04/05 09:10:15;;;;;;;0.00;0.00;;;7.30;99.90;;;;;;5041906;28;20041;-59
2022/04/05 09:12:50;;;;;;;0.00;0.00;;;7.40;99.90;;;;;;5019988;28;20095;-60
2022/04/05 09:15:18;;;;;;;0.00;0.00;;;7.50;99.90;;;;;;5022441;28;20046;-59
2022/04/05 09:17:46;;;;;;;0.00;0.00;;;7.50;99.90;;;;;;5021139;28;20049;-58
2022/04/05 09:20:13;;;;;;;0.00;0.00;;;7.50;99.90;;;;;;5027725;28;20109;-60
2022/04/05 09:22:39;;;;;;;0.00;0.00;;;7.50;99.90;;;;;;5040420;28;20025;-60
2022/04/05 09:25:05;;;;;;;0.00;0.00;;;7.60;99.90;;;;;;5042066;28;20048;-57
2022/04/05 09:27:49;;;;;;;0.00;0.00;;;7.50;99.90;;;;;;5040564;28;20095;-61
2022/04/05 09:30:27;;;;;;;0.00;0.00;;;7.60;99.90;;;;;;5041925;28;20037;-60
2022/04/05 09:32:53;;;;;;;0.00;0.00;;;7.60;99.90;;;;;;5040263;28;20040;-61
2022/04/05 09:35:22;;;;;;;0.00;0.00;;;7.60;99.90;;;;;;5042205;28;20384;-61
2022/04/05 09:37:49;;;;;;;0.00;0.00;;;7.60;99.90;;;;;;5041270;28;20136;-60
2022/04/05 09:40:17;;;;;;;0.00;0.00;;;7.60;99.90;;;;;;5041830;28;20044;-60
2022/04/05 09:43:01;;;;;;;0.00;0.00;;;7.60;99.90;;;;;;5039692;28;20087;-61
2022/04/05 09:45:53;;;;;;;0.00;0.00;;;7.70;99.90;;;;;;5041935;28;20143;-61
2022/04/05 09:48:21;;;;;;;0.00;0.00;;;7.70;99.90;;;;;;5041028;28;20640;-61
2022/04/05 09:51:17;;;;;;;0.00;0.00;;;7.80;99.90;;;;;;5041329;28;20130;-60
2022/04/05 09:53:47;;;;;;;0.00;0.00;;;7.70;99.90;;;;;;5022682;28;20499;-60
2022/04/05 09:56:25;;;;;;;0.00;0.00;;;7.70;99.90;;;;;;5041514;28;20053;-60
2022/04/05 09:59:06;;;;;;;0.00;0.00;;;7.70;99.90;;;;;;5040955;28;20053;-61
2022/04/05 10:01:34;;;;;;;0.00;0.00;;;7.90;99.90;;;;;;5035372;28;20073;-60
2022/04/05 10:04:08;;;;;;;0.00;0.00;;;7.90;99.90;;;;;;5026792;28;20144;-61
2022/04/05 10:06:38;;;;;;;0.00;0.00;;;7.90;99.90;;;;;;5021962;28;20053;-57
2022/04/05 10:09:04;;;;;;;0.00;0.00;;;7.40;99.90;;;;;;5019791;28;20049;-60
2022/04/05 10:11:33;;;;;;;0.00;0.00;;;7.90;99.90;;;;;;5036272;28;20137;-60
2022/04/05 10:13:59;;;;;;;0.00;0.00;;;7.80;99.90;;;;;;5020715;28;20133;-61
2022/04/05 10:16:27;;;;;;;0.00;0.00;;;7.80;99.90;;;;;;5021439;28;20128;-62
2022/04/05 10:18:57;;;;;;;0.43;0.10;;;7.80;99.90;;;;;;5019473;28;20518;-61
2022/04/05 10:21:25;;;;;;;0.00;0.00;;;7.90;99.90;;;;;;5020194;28;20422;-60
2022/04/05 10:23:54;;;;;;;0.00;0.00;;;7.90;99.90;;;;;;5020820;28;20041;-62
2022/04/05 10:26:24;;;;;;;0.00;0.00;;;8.00;99.90;;;;;;5019656;28;20407;-61
2022/04/05 10:28:51;;;;;;;0.00;0.00;;;8.00;99.90;;;;;;5020043;28;20041;-59
2022/04/05 10:31:24;;;;;;;0.00;0.00;;;7.90;99.90;;;;;;5036544;28;20092;-60
2022/04/05 10:34:15;;;;;;;0.00;0.00;;;7.80;99.90;;;;;;5019795;28;20045;-59
2022/04/05 10:37:01;;;;;;;0.00;0.00;;;7.80;99.90;;;;;;5009270;28;20709;-63
2022/04/05 10:39:27;;;;;;;0.00;0.00;;;7.70;99.90;;;;;;5021282;28;20404;-64
2022/04/05 10:42:11;;;;;;;0.00;0.00;;;7.80;99.90;;;;;;5021101;28;20037;-63
2022/04/05 10:44:46;;;;;;;0.00;0.00;;;7.80;99.90;;;;;;5020449;28;20045;-63
2022/04/05 10:47:12;;;;;;;0.10;0.10;;;7.80;99.90;;;;;;5021274;28;20049;-64
2022/04/05 10:49:43;;;;;;;0.00;0.00;;;7.80;99.90;;;;;;5018950;28;20458;-64
2022/04/05 10:52:17;;;;;;;0.00;0.00;;;7.80;99.90;;;;;;5021218;28;20090;-64
2022/04/05 10:54:49;;;;;;;0.00;0.00;;;7.90;99.90;;;;;;5019673;28;20700;-63
2022/04/05 10:57:34;;;;;;;0.00;0.00;;;7.90;99.90;;;;;;5020562;28;20042;-66
2022/04/05 11:00:08;;;;;;;0.00;0.00;;;7.90;99.90;;;;;;5021618;28;20128;-63
2022/04/05 11:02:44;;;;;;;0.00;0.00;;;8.00;99.90;;;;;;5031233;28;20071;-63
2022/04/05 11:05:18;;;;;;;0.00;0.00;;;7.90;99.90;;;;;;5021447;28;20053;-63
2022/04/05 11:07:59;;;;;;;0.00;0.00;;;7.90;99.90;;;;;;5020699;28;20451;-63
2022/04/05 11:10:37;;;;;;;0.00;0.00;;;7.90;99.90;;;;;;5021396;28;20058;-64
2022/04/05 11:13:08;;;;;;;0.00;0.00;;;8.00;99.90;;;;;;5021369;28;20053;-64
2022/04/05 11:15:54;;;;;;;0.00;0.00;;;8.90;99.90;;;;;;5021131;28;20159;-65
2022/04/05 11:18:22;;;;;;;0.00;0.00;;;8.00;99.90;;;;;;5035418;28;20420;-63
2022/04/05 11:20:51;;;;;;;0.00;0.00;;;8.00;99.90;;;;;;5018629;28;20045;-64
2022/04/05 11:23:19;;;;;;;0.00;0.00;;;8.00;99.90;;;;;;5021206;28;20076;-64
2022/04/05 11:25:46;;;;;;;0.00;0.00;;;8.10;99.90;;;;;;5020855;28;20112;-63
2022/04/05 11:28:21;;;;;;;0.00;0.00;;;8.30;99.90;;;;;;5035966;28;20058;-64
2022/04/05 11:31:04;;;;;;;0.00;0.00;;;8.20;99.90;;;;;;5020608;28;20129;-63
2022/04/05 11:33:32;;;;;;;0.13;0.10;;;8.20;99.90;;;;;;5019667;28;20041;-64
2022/04/05 11:36:01;;;;;;;0.00;0.00;;;8.30;99.90;;;;;;5036076;28;20045;-64
2022/04/05 11:38:39;;;;;;;0.00;0.00;;;8.40;99.90;;;;;;5021114;28;20402;-63
2022/04/05 11:41:26;;;;;;;0.00;0.00;;;9.40;99.90;;;;;;5024037;28;20041;-63
2022/04/05 11:44:03;;;;;;;0.00;0.00;;;8.50;99.90;;;;;;5024374;28;20057;-63
2022/04/05 11:46:33;;;;;;;0.00;0.00;;;8.50;99.90;;;;;;5024795;28;20128;-64
2022/04/05 11:49:07;;;;;;;0.00;0.00;;;8.40;99.90;;;;;;5023065;28;20045;-64
2022/04/05 11:51:35;;;;;;;0.00;0.00;;;8.40;99.90;;;;;;5023950;28;20053;-64
2022/04/05 11:54:05;;;;;;;0.00;0.00;;;8.30;99.90;;;;;;5024305;28;20117;-63
2022/04/05 11:56:31;;;;;;;0.00;0.00;;;8.80;99.90;;;;;;5024636;28;20111;-63
2022/04/05 11:58:59;;;;;;;0.00;0.00;;;8.40;99.90;;;;;;5023209;28;20471;-63
2022/04/05 12:01:26;;;;;;;0.00;0.00;;;8.60;99.90;;;;;;5039467;28;20330;-64
2022/04/05 12:03:53;;;;;;;0.00;0.00;;;8.70;99.90;;;;;;5030607;28;20049;-63
2022/04/05 12:06:21;;;;;;;0.00;0.00;;;8.90;99.90;;;;;;5024212;28;20045;-64
2022/04/05 12:08:48;;;;;;;0.00;0.00;;;9.00;99.90;;;;;;5022203;28;20136;-63
2022/04/05 12:11:19;;;;;;;0.00;0.00;;;9.00;99.90;;;;;;5023962;28;20120;-64
2022/04/05 12:13:53;;;;;;;0.00;0.00;;;9.00;99.90;;;;;;5038690;28;20048;-63
2022/04/05 12:16:20;;;;;;;0.00;0.00;;;8.90;99.90;;;;;;5039016;28;20045;-64
2022/04/05 12:18:46;;;;;;;0.00;0.00;;;8.80;99.90;;;;;;5037721;28;20310;-63
2022/04/05 12:21:11;;;;;;;0.00;0.00;;;8.80;99.90;;;;;;5023757;28;20407;-63
2022/04/05 12:23:41;;;;;;;0.00;0.00;;;8.70;99.90;;;;;;5038289;28;20068;-64
2022/04/05 12:26:25;;;;;;;0.00;0.00;;;8.80;99.90;;;;;;5023766;28;20041;-62
2022/04/05 12:28:53;;;;;;;0.00;0.00;;;8.90;99.90;;;;;;5022899;28;20049;-63
2022/04/05 12:31:26;;;;;;;0.00;0.00;;;9.10;99.90;;;;;;5023650;28;20037;-63
2022/04/05 12:34:02;;;;;;;0.00;0.00;;;9.10;99.90;;;;;;5038005;28;20037;-63
2022/04/05 12:36:38;;;;;;;0.00;0.00;;;9.20;99.90;;;;;;5023461;28;20153;-64
2022/04/05 12:39:06;;;;;;;0.00;0.00;;;9.30;99.90;;;;;;5023531;28;20297;-63
2022/04/05 12:41:40;;;;;;;0.00;0.00;;;9.70;99.90;;;;;;5023669;28;20052;-63
2022/04/05 12:44:11;;;;;;;0.00;0.00;;;9.40;99.90;;;;;;5023337;28;20531;-64
2022/04/05 12:46:39;;;;;;;0.00;0.00;;;9.40;99.90;;;;;;5037891;28;20041;-64
2022/04/05 12:49:32;;;;;;;0.00;0.00;;;9.50;99.90;;;;;;5022448;28;20047;-64
2022/04/05 12:52:19;;;;;;;0.00;0.00;;;9.60;99.90;;;;;;5016681;28;20053;-63
2022/04/05 12:54:54;;;;;;;0.00;0.00;;;9.70;99.90;;;;;;5021279;28;20053;-63
2022/04/05 12:57:27;;;;;;;0.00;0.00;;;9.70;99.90;;;;;;5023357;28;20442;-64
2022/04/05 13:00:15;;;;;;;0.00;0.00;;;9.50;99.90;;;;;;5036527;28;20053;-64
2022/04/05 13:02:51;;;;;;;0.00;0.00;;;9.50;99.90;;;;;;5021060;28;20446;-62
2022/04/05 13:08:13;;;;;;;0.00;0.00;;;9.30;99.90;;;;;;5042004;28;20049;-64
2022/04/05 13:10:47;;;;;;;0.00;0.00;;;9.80;99.90;;;;;;5042722;28;20056;-63
2022/04/05 13:13:17;;;;;;;0.00;0.00;;;9.40;99.90;;;;;;5042652;28;20618;-64